Latest Weather Observations for McCluer Island

IDD60801

Issued at 9:35 pm CST Thursday 2 October 2014 (issued every 30 minutes, with the page automatically refreshed every 10 minutes)

About weather observations | Map of weather stations | Latest weather observations for NT | Other Formats
Station Details ID: 014274 Name: MCCLUER ISLAND Lat: -11.05 Lon: 132.98 Height: 1.4 m
Data from the previous 72 hours. | See also: Recent months at McCluer Island
Date/Time
CST
Temp
°C
App
Temp
°C
Dew
Point
Rel
Hum
%
Delta-T
°C
Wind Press
QNH
hPa
Press
MSL
hPa
Rain
since 9 am
mm
Dir
 
Spd
km/h
Gust
km/h
Spd
kts
Gust
kts
02/09:30pm 26.3 29.3 24.0 87 1.6 ENE 15 17 8 9 1012.0 - 0.0
02/09:00pm 26.5 29.2 24.2 87 1.6 NE 17 19 9 10 1011.6 1011.6 0.0
02/08:30pm 26.4 29.1 24.1 87 1.6 NNE 17 20 9 11 1011.3 - 0.0
02/08:00pm 26.4 28.6 23.9 86 1.7 NE 19 20 10 11 1011.0 - 0.0
02/07:30pm 26.8 29.1 24.5 87 1.6 NE 20 22 11 12 1010.8 - 0.0
02/07:00pm 26.6 28.6 23.9 85 1.9 NE 20 24 11 13 1010.5 - 0.0
02/06:30pm 26.5 28.2 23.4 83 2.1 ENE 20 24 11 13 1010.4 - 0.0
02/06:00pm 26.7 28.3 23.2 81 2.4 ENE 20 24 11 13 1010.2 1010.2 0.0
02/05:30pm 27.2 29.2 23.9 82 2.3 E 20 24 11 13 1010.0 - 0.0
02/05:00pm 27.4 28.8 23.6 80 2.6 E 22 28 12 15 1009.9 - 0.0
02/04:30pm 27.7 28.8 23.7 79 2.7 E 24 30 13 16 1010.0 - 0.0
02/04:00pm 27.5 27.9 23.1 77 3.0 E 26 30 14 16 1010.1 - 0.0
02/03:30pm 27.8 27.7 23.6 78 2.9 E 30 33 16 18 1010.4 - 0.0
02/03:00pm 27.9 27.6 23.9 79 2.8 E 32 37 17 20 1010.6 1010.6 0.0
02/02:30pm 28.0 27.7 23.8 78 2.9 E 32 37 17 20 1010.7 - 0.0
02/02:00pm 27.9 27.4 23.5 77 3.0 E 32 37 17 20 1010.9 - 0.0
02/01:30pm 27.9 27.4 23.5 77 3.0 E 32 37 17 20 1011.2 - 0.0
02/01:00pm 27.9 26.8 22.8 74 3.5 E 33 41 18 22 1011.6 - 0.0
02/12:30pm 28.1 27.4 23.2 74 3.3 E 32 39 17 21 1012.0 - 0.0
02/12:00pm 28.1 27.8 23.2 74 3.3 E 30 37 16 20 1012.3 1012.3 0.0
02/11:30am 27.8 27.4 23.0 75 3.3 E 30 35 16 19 1012.7 - 0.0
02/11:00am 27.8 27.7 23.6 78 2.9 E 30 35 16 19 1013.2 - 0.0
02/10:30am 27.4 27.1 23.2 78 2.9 E 30 35 16 19 1013.3 - 0.0
02/10:00am 27.4 27.8 23.8 81 2.5 E 28 33 15 18 1013.5 - 0.0
02/09:30am 27.2 26.6 23.4 80 2.6 ESE 32 37 17 20 1013.6 - 0.0
02/09:00am 27.2 27.2 23.0 78 2.9 ESE 28 33 15 18 1013.6 1013.6 0.0
02/08:30am 27.2 27.6 23.7 81 2.4 ESE 28 33 15 18 1013.5 - 0.0
02/08:00am 26.6 27.1 23.9 85 1.9 ESE 28 32 15 17 1013.5 - 0.0
02/07:30am 26.4 27.4 24.1 87 1.6 ESE 26 32 14 17 1013.1 - 0.0
02/07:00am 26.0 26.7 23.7 87 1.6 E 26 32 14 17 1012.6 - 0.0
02/06:30am 26.1 26.4 24.3 90 1.2 E 30 35 16 19 1011.9 - 0.0
02/06:00am 26.0 26.0 24.4 91 1.1 E 32 39 17 21 1011.4 1011.4 0.0
02/05:30am 25.9 26.5 24.1 90 1.2 E 28 33 15 18 1011.5 - 0.0
02/05:00am 25.6 26.0 23.8 90 1.2 E 28 32 15 17 1011.3 - 0.0
02/04:30am 25.8 26.9 24.4 92 1.0 E 26 33 14 18 1011.1 - 0.0
02/04:00am 25.9 27.6 24.7 93 0.8 ENE 24 32 13 17 1010.8 - 0.0
02/03:30am 25.8 26.9 24.4 92 1.0 ENE 26 30 14 16 1010.7 - 0.0
02/03:00am 25.8 26.2 24.4 92 1.0 E 30 33 16 18 1011.2 1011.2 0.0
02/02:30am 25.6 26.2 24.2 92 1.0 E 28 32 15 17 1011.3 - 0.0
02/02:00am 26.1 27.1 24.7 92 1.0 E 28 33 15 18 1011.4 - 0.0
02/01:30am 26.1 27.2 24.9 93 0.8 E 28 33 15 18 1011.3 - 0.0
02/01:00am 26.1 26.5 24.5 91 1.1 E 30 35 16 19 1011.5 - 0.0
02/12:30am 26.3 27.0 24.9 92 1.0 E 30 33 16 18 1012.0 - 0.0
02/12:00am 26.3 27.4 24.9 92 1.0 ENE 28 32 15 17 1012.1 1012.1 0.0
 
Date/Time
CST
Temp
°C
App
Temp
°C
Dew
Point
Rel
Hum
%
Delta-T
°C
Wind Press
QNH
hPa
Press
MSL
hPa
Rain
since 9 am
mm
Dir
 
Spd
km/h
Gust
km/h
Spd
kts
Gust
kts
01/11:30pm 26.5 28.0 24.9 91 1.1 ENE 26 30 14 16 1012.4 - 0.0
01/11:00pm 26.2 27.5 24.1 88 1.4 NE 24 28 13 15 1012.1 - 0.0
01/10:30pm 26.5 27.8 24.7 90 1.2 NE 26 30 14 16 1012.1 - 0.0
01/10:00pm 26.4 27.2 24.4 89 1.4 NE 28 32 15 17 1012.1 - 0.0
01/09:30pm 26.4 27.3 23.9 86 1.7 NE 26 30 14 16 1011.9 - 0.0
01/09:00pm 26.4 27.7 24.1 87 1.6 NNE 24 28 13 15 1011.5 1011.5 0.0
01/08:30pm 26.5 27.6 24.3 88 1.5 NE 26 32 14 17 1011.2 - 0.0
01/08:00pm 26.4 27.0 24.1 87 1.6 NE 28 33 15 18 1010.8 - 0.0
01/07:30pm 26.4 26.0 23.7 85 1.8 NE 32 37 17 20 1010.7 - 0.0
01/07:00pm 26.4 25.7 23.5 84 2.0 NE 33 39 18 21 1010.3 - 0.0
01/06:30pm 26.6 26.1 23.9 85 1.9 NE 33 39 18 21 1010.3 - 0.0
01/06:00pm 26.6 25.7 23.1 81 2.4 ENE 33 39 18 21 1010.2 1010.2 0.0
01/05:30pm 26.8 25.1 23.1 80 2.5 ENE 37 39 20 21 1010.1 - 0.0
01/05:00pm 27.2 25.7 23.4 80 2.6 ENE 37 41 20 22 1010.1 - 0.0
01/04:30pm 27.7 27.3 24.1 81 2.5 E 33 39 18 21 1010.3 - 0.0
01/04:00pm 27.7 27.3 23.7 79 2.7 E 32 37 17 20 1010.4 - 0.0
01/03:30pm 28.1 28.3 24.1 79 2.8 E 30 35 16 19 1010.6 - 0.0
01/03:00pm 28.1 27.6 23.5 76 3.2 E 32 35 17 19 1010.8 1010.8 0.0
01/02:30pm 28.6 28.8 23.5 74 3.5 E 28 35 15 19 1011.2 - 0.0
01/02:00pm 27.9 26.9 22.6 73 3.6 E 32 37 17 20 1011.6 - 0.0
01/01:30pm 28.1 27.2 22.8 73 3.6 E 32 35 17 19 1011.8 - 0.0
01/01:00pm 27.9 26.9 22.6 73 3.6 E 32 37 17 20 1012.2 - 0.0
01/12:30pm 28.2 27.1 22.9 73 3.6 E 33 37 18 20 1012.6 - 0.0
01/12:00pm 28.1 26.6 22.1 70 4.0 E 33 39 18 21 1013.2 1013.2 0.0
01/11:30am 28.2 26.7 21.7 68 4.4 E 32 35 17 19 1013.5 - 0.0
01/11:00am 27.6 26.1 22.8 75 3.3 E 35 43 19 23 1013.9 - 0.0
01/10:30am 27.1 25.0 22.3 75 3.2 E 37 43 20 23 1014.2 - 0.0
01/10:00am 27.0 25.0 22.6 77 3.0 E 37 44 20 24 1014.2 - 0.0
01/09:30am 27.2 24.8 21.9 73 3.6 E 37 46 20 25 1014.0 - 0.0
01/09:00am 26.7 25.4 22.5 78 2.8 E 33 41 18 22 1014.0 1014.0 0.0
01/08:30am 26.5 25.1 23.6 84 2.0 E 37 44 20 24 1013.8 - 0.0
01/08:00am 26.1 24.7 23.0 83 2.1 E 35 43 19 23 1013.6 - 0.0
01/07:30am 26.0 25.1 23.1 84 2.0 E 33 39 18 21 1013.2 - 0.0
01/07:00am 26.1 24.6 23.4 85 1.8 E 37 43 20 23 1012.8 - 0.0
01/06:30am 25.8 24.1 23.1 85 1.8 E 37 43 20 23 1012.3 - 0.0
01/06:00am 25.8 24.5 23.1 85 1.8 E 35 43 19 23 1012.0 1012.0 0.0
01/05:30am 25.6 23.1 22.3 82 2.2 E 39 44 21 24 1011.7 - 0.0
01/05:00am 25.7 23.7 23.2 86 1.7 E 39 48 21 26 1011.5 - 0.0
01/04:30am 25.7 23.4 23.4 87 1.6 E 41 46 22 25 1011.2 - 0.0
01/04:00am 25.8 23.6 23.5 87 1.6 E 41 46 22 25 1011.2 - 0.0
01/03:30am 26.0 24.6 24.2 90 1.2 E 39 46 21 25 1011.2 - 0.0
01/03:00am 26.0 24.8 23.9 88 1.4 E 37 48 20 26 1011.3 1011.3 0.0
01/02:30am 26.3 25.6 24.2 88 1.4 E 35 41 19 22 1011.2 - 0.0
01/02:00am 26.4 26.0 24.1 87 1.6 E 33 41 18 22 1011.4 - 0.0
01/01:30am 26.3 25.8 23.8 86 1.7 E 33 39 18 21 1011.6 - 0.0
01/01:00am 26.4 25.7 24.1 87 1.6 E 35 41 19 22 1012.1 - 0.0
01/12:30am 26.4 25.9 23.9 86 1.7 E 33 41 18 22 1012.6 - 0.0
01/12:00am 26.5 26.3 24.3 88 1.5 E 33 37 18 20 1012.9 1012.9 0.0
 
Date/Time
CST
Temp
°C
App
Temp
°C
Dew
Point
Rel
Hum
%
Delta-T
°C
Wind Press
QNH
hPa
Press
MSL
hPa
Rain
since 9 am
mm
Dir
 
Spd
km/h
Gust
km/h
Spd
kts
Gust
kts
30/11:30pm 26.6 25.9 24.1 86 1.7 E 35 41 19 22 1013.1 - 0.0
30/11:00pm 26.7 26.2 24.5 88 1.5 E 35 41 19 22 1013.1 - 0.0
30/10:30pm 26.4 26.1 24.2 88 1.5 E 33 39 18 21 1013.0 - 0.0
30/10:00pm 26.4 25.2 23.9 86 1.7 ENE 37 43 20 23 1012.9 - 0.0
30/09:30pm 26.6 26.1 23.9 85 1.9 ENE 33 39 18 21 1012.6 - 0.0
30/09:00pm 26.8 27.3 24.6 88 1.5 ENE 30 35 16 19 1012.3 1012.3 0.0
30/08:30pm 26.6 27.0 24.4 88 1.5 ENE 30 35 16 19 1012.0 - 0.0
30/08:00pm 26.7 26.4 24.2 86 1.7 ENE 33 39 18 21 1011.7 - 0.0
30/07:30pm 26.8 26.9 24.5 87 1.6 ENE 32 37 17 20 1011.2 - 0.0
30/07:00pm 26.7 26.6 24.2 86 1.7 ENE 32 35 17 19 1010.9 - 0.0
30/06:30pm 26.9 26.8 24.2 85 1.9 ENE 32 39 17 21 1010.7 - 0.0
30/06:00pm 27.1 27.2 24.9 88 1.5 ENE 33 37 18 20 1010.5 1010.5 0.0
30/05:30pm 27.0 26.5 23.9 83 2.1 ENE 33 39 18 21 1010.4 - 0.0
30/05:00pm 27.0 26.7 23.9 83 2.1 ENE 32 37 17 20 1010.3 - 0.0
30/04:30pm 27.4 27.4 24.7 85 1.9 ENE 33 39 18 21 1010.4 - 0.0
30/04:00pm 27.6 28.0 24.4 83 2.2 ENE 30 33 16 18 1010.6 - 0.0
30/03:30pm 27.6 27.1 23.6 79 2.7 E 32 35 17 19 1010.9 - 0.0
30/03:00pm 27.6 26.5 22.8 75 3.3 ENE 33 37 18 20 1011.2 1011.2 0.0
30/02:30pm 28.1 28.0 23.5 76 3.2 E 30 33 16 18 1011.3 - 0.0
30/02:00pm 27.8 28.0 23.4 77 3.0 E 28 32 15 17 1011.5 - 0.0
30/01:30pm 28.3 29.2 23.9 77 3.0 E 26 32 14 17 1011.9 - 0.0
30/01:00pm 28.1 29.2 24.3 80 2.6 E 26 30 14 16 1012.4 - 0.0
30/12:30pm 27.9 28.8 23.3 76 3.1 E 24 28 13 15 1013.0 - 0.0
30/12:00pm 27.6 28.2 23.4 78 2.9 E 26 30 14 16 1013.7 1013.7 0.0
30/11:30am 27.9 28.5 24.1 80 2.6 E 28 32 15 17 1014.1 - 0.0
30/11:00am 27.3 27.4 23.3 79 2.7 E 28 33 15 18 1014.3 - 0.0
30/10:30am 27.1 27.2 24.0 83 2.1 ENE 30 35 16 19 1014.3 - 0.0
30/10:00am 26.8 26.8 23.7 83 2.1 ENE 30 35 16 19 1014.3 - 0.0
30/09:30am 27.2 26.9 23.9 82 2.3 E 32 35 17 19 1014.4 - 0.0
30/09:00am 26.9 27.2 24.2 85 1.9 E 30 35 16 19 1014.5 1014.5 0.0
30/08:30am 26.8 26.8 23.7 83 2.1 E 30 37 16 20 1014.5 - 0.0
30/08:00am 26.6 26.7 23.9 85 1.9 E 30 33 16 18 1014.4 - 0.0
30/07:30am 26.6 26.7 23.9 85 1.9 E 30 35 16 19 1014.0 - 0.0
30/07:00am 26.3 26.1 24.0 87 1.6 E 32 35 17 19 1013.6 - 0.0
30/06:30am 26.3 26.2 24.2 88 1.4 E 32 35 17 19 1013.2 - 0.0
30/06:00am 25.9 25.4 23.8 88 1.4 E 33 39 18 21 1012.7 1012.7 0.0
30/05:30am 26.3 26.4 24.5 90 1.2 E 32 39 17 21 1012.4 - 0.0
30/05:00am 26.4 26.5 24.6 90 1.2 E 32 35 17 19 1012.1 - 0.0
30/04:30am 26.3 26.9 24.7 91 1.1 E 30 33 16 18 1011.9 - 0.0
30/04:00am 26.4 26.8 25.0 92 1.0 E 32 35 17 19 1011.9 - 0.0
30/03:30am 26.6 26.9 25.2 92 1.0 E 33 37 18 20 1011.8 - 0.0
30/03:00am 26.2 26.3 24.8 92 1.0 E 33 39 18 21 1011.7 1011.7 0.0
30/02:30am 26.3 25.9 25.3 94 0.7 ENE 37 41 20 22 1011.3 - 0.0
30/02:00am 26.2 26.7 25.2 94 0.7 ENE 32 37 17 20 1011.5 - 0.0
30/01:30am 26.6 27.8 25.7 95 0.6 ENE 30 33 16 18 1011.7 - 0.0
30/01:00am 26.6 28.2 25.7 95 0.6 ENE 28 32 15 17 1011.9 - 0.0
30/12:30am 26.4 28.0 25.2 93 0.8 ENE 26 30 14 16 1012.4 - 0.0
30/12:00am 26.6 27.4 25.0 91 1.1 ENE 30 33 16 18 1012.5 1012.5 0.0
 
Date/Time
CST
Temp
°C
App
Temp
°C
Dew
Point
Rel
Hum
%
Delta-T
°C
Wind Press
QNH
hPa
Press
MSL
hPa
Rain
since 9 am
mm
Dir
 
Spd
km/h
Gust
km/h
Spd
kts
Gust
kts
29/11:30pm 26.7 27.5 25.1 91 1.1 ENE 30 33 16 18 1012.4 - 0.0
29/11:00pm 26.8 27.0 25.0 90 1.3 ENE 33 37 18 20 1012.6 - 0.0
29/10:30pm 26.8 27.0 25.0 90 1.3 ENE 33 39 18 21 1012.5 - 0.0
29/10:00pm 27.1 27.8 25.5 91 1.1 ENE 32 35 17 19 1012.6 - 0.0

Other Formats:

Comma delimited format used in spreadsheet applications
http://www.bom.gov.au/fwo/IDD60801/IDD60801.94135.axf

JavaScript Object Notation format (JSON) in row-major order
http://www.bom.gov.au/fwo/IDD60801/IDD60801.94135.json